Time;durP1;ratioP1;P1;durP2;ratioP2;P2;SDS_P1;SDS_P2;PMS_P1;PMS_P2;Temp;Humidity;BMP_temperature;BMP_pressure;BME280_temperature;BME280_humidity;BME280_pressure;Samples;Min_cycle;Max_cycle;Signal;HPM_P1;HPM_P2
2022/12/16 00:02:12;;;;;;;;;;;0.10;99.90;;;;;;4926287;28;20153;-71
2022/12/16 00:04:37;;;;;;;;;;;0.10;99.90;;;;;;4948557;28;19922;-71
2022/12/16 00:07:03;;;;;;;;;;;0.10;99.90;;;;;;4942483;28;19978;-71
2022/12/16 00:09:28;;;;;;;;;;;0.10;99.90;;;;;;4961110;28;19922;-71
2022/12/16 00:11:54;;;;;;;;;;;0.10;99.90;;;;;;4958052;28;19926;-71
2022/12/16 00:14:20;;;;;;;;;;;0.10;99.90;;;;;;4949126;28;19922;-71
2022/12/16 00:16:45;;;;;;;;;;;0.00;99.90;;;;;;4971213;28;19934;-71
2022/12/16 00:19:11;;;;;;;;;;;-0.10;99.90;;;;;;4936127;28;20306;-71
2022/12/16 00:21:37;;;;;;;;;;;-0.20;99.90;;;;;;4946886;28;20002;-71
2022/12/16 00:24:02;;;;;;;;;;;-0.20;99.90;;;;;;4955170;28;19933;-71
2022/12/16 00:26:30;;;;;;;;;;;-0.30;99.90;;;;;;4945543;28;19949;-71
2022/12/16 00:28:55;;;;;;;;;;;-0.30;99.90;;;;;;4958817;28;19941;-71
2022/12/16 00:31:21;;;;;;;;;;;-0.40;99.90;;;;;;4944832;28;20299;-71
2022/12/16 00:33:47;;;;;;;;;;;-0.40;99.90;;;;;;4947236;28;19985;-71
2022/12/16 00:36:12;;;;;;;;;;;-0.50;99.90;;;;;;4940828;28;20453;-71
2022/12/16 00:38:38;;;;;;;;;;;-0.50;99.90;;;;;;4954211;28;19965;-70
2022/12/16 00:41:04;;;;;;;;;;;-0.50;99.90;;;;;;4925518;28;19981;-70
2022/12/16 00:43:29;;;;;;;;;;;-0.60;99.90;;;;;;4961011;28;20510;-70
2022/12/16 00:45:55;;;;;;;;;;;-0.60;99.90;;;;;;4924898;28;19927;-70
2022/12/16 00:48:22;;;;;;;;;;;-0.70;99.90;;;;;;4936666;28;19973;-70
2022/12/16 00:50:49;;;;;;;;;;;-0.70;99.90;;;;;;4935109;28;19959;-70
2022/12/16 00:53:14;;;;;;;;;;;-0.70;99.90;;;;;;4943856;28;19926;-70
2022/12/16 00:55:40;;;;;;;;;;;-0.80;99.90;;;;;;4952000;28;19933;-70
2022/12/16 00:58:05;;;;;;;;;;;-0.80;99.90;;;;;;4944116;28;20050;-70
2022/12/16 01:00:31;;;;;;;;;;;-0.80;99.90;;;;;;4944688;28;19926;-70
2022/12/16 01:02:56;;;;;;;;;;;-0.90;99.90;;;;;;4954175;28;20410;-70
2022/12/16 01:05:25;;;;;;;;;;;-0.90;99.90;;;;;;4952138;28;19932;-70
2022/12/16 01:07:52;;;;;;;;;;;-1.00;99.90;;;;;;4947117;28;20009;-70
2022/12/16 01:10:18;;;;;;;;;;;-1.10;99.90;;;;;;4954304;28;20358;-70
2022/12/16 01:12:44;;;;;;;;;;;-1.10;99.90;;;;;;4956941;28;19989;-70
2022/12/16 01:15:11;;;;;;;;;;;-1.10;99.90;;;;;;4940830;28;19925;-70
2022/12/16 01:17:37;;;;;;;;;;;-1.20;99.90;;;;;;4939136;28;20410;-70
2022/12/16 01:20:03;;;;;;;;;;;-1.20;99.90;;;;;;4974242;28;19968;-70
2022/12/16 01:22:29;;;;;;;;;;;-1.30;99.90;;;;;;4948276;28;19926;-70
2022/12/16 01:24:54;;;;;;;;;;;-1.30;99.90;;;;;;4935685;28;19986;-70
2022/12/16 01:27:20;;;;;;;;;;;-1.40;99.90;;;;;;4961990;28;19922;-70
2022/12/16 01:29:45;;;;;;;;;;;-1.50;99.90;;;;;;4957611;28;20375;-70
2022/12/16 01:32:12;;;;;;;;;;;-1.60;99.90;;;;;;4978008;28;19922;-70
2022/12/16 01:34:37;;;;;;;;;;;-1.60;99.90;;;;;;4943947;28;19926;-70
2022/12/16 01:37:03;;;;;;;;;;;-1.60;99.90;;;;;;4967695;28;20021;-70
2022/12/16 01:39:29;;;;;;;;;;;-1.70;99.90;;;;;;4962142;28;19973;-70
2022/12/16 01:41:55;;;;;;;;;;;-1.70;99.90;;;;;;4940613;28;20339;-70
2022/12/16 01:44:25;;;;;;;;;;;-1.80;99.90;;;;;;4959297;28;19922;-70
2022/12/16 01:46:55;;;;;;;;;;;-1.80;99.90;;;;;;4949931;28;20336;-70
2022/12/16 01:49:24;;;;;;;;;;;-1.90;99.90;;;;;;4959224;28;19969;-70
2022/12/16 01:51:50;;;;;;;;;;;-1.90;99.90;;;;;;4944488;28;20243;-70
2022/12/16 01:54:28;;;;;;;;;;;-2.00;99.90;;;;;;4955902;28;19930;-70
2022/12/16 01:56:57;;;;;;;;;;;-2.00;99.90;;;;;;4957223;28;20286;-70
2022/12/16 01:59:24;;;;;;;;;;;-2.00;99.90;;;;;;4965144;28;20056;-70
2022/12/16 02:01:50;;;;;;;;;;;-2.10;99.90;;;;;;4963646;28;19944;-70
2022/12/16 02:04:15;;;;;;;;;;;-2.10;99.90;;;;;;4976256;28;20383;-70
2022/12/16 02:06:41;;;;;;;;;;;-2.10;99.90;;;;;;4962685;28;20004;-70
2022/12/16 02:09:09;;;;;;;;;;;-2.20;99.90;;;;;;4931501;29;19923;-70
2022/12/16 02:11:53;;;;;;;;;;;-2.20;99.90;;;;;;4953341;28;20009;-70
2022/12/16 02:14:22;;;;;;;;;;;-2.30;99.90;;;;;;4943328;28;19953;-70
2022/12/16 02:16:58;;;;;;;;;;;-2.40;99.90;;;;;;4963658;28;19930;-70
2022/12/16 02:19:42;;;;;;;;;;;-2.50;99.90;;;;;;4952316;28;19965;-70
2022/12/16 02:22:26;;;;;;;;;;;-2.50;99.90;;;;;;4967926;28;20559;-70
2022/12/16 02:25:11;;;;;;;;;;;-2.50;99.90;;;;;;4944036;28;20408;-70
2022/12/16 02:27:44;;;;;;;;;;;-2.50;99.90;;;;;;4941734;28;19927;-70
2022/12/16 02:30:36;;;;;;;;;;;-2.50;99.90;;;;;;4940793;28;20401;-70
2022/12/16 02:33:21;;;;;;;;;;;-2.50;99.90;;;;;;4916044;28;19930;-70
2022/12/16 02:35:53;;;;;;;;;;;-2.50;99.90;;;;;;4954940;28;19934;-70
2022/12/16 02:38:37;;;;;;;;;;;-2.50;99.90;;;;;;4932629;29;19929;-70
2022/12/16 02:41:05;;;;;;;;;;;-2.50;99.90;;;;;;4947267;28;19926;-70
2022/12/16 02:43:40;;;;;;;;;;;-2.50;99.90;;;;;;4967866;28;19961;-70
2022/12/16 02:46:06;;;;;;;;;;;-2.50;99.90;;;;;;4941744;28;19927;-70
2022/12/16 02:48:31;;;;;;;;;;;-2.40;99.90;;;;;;4948969;28;19929;-70
2022/12/16 02:50:57;;;;;;;;;;;-2.40;99.90;;;;;;4964454;28;19926;-70
2022/12/16 02:53:23;;;;;;;;;;;-2.30;99.90;;;;;;4957547;28;19923;-70
2022/12/16 02:55:51;;;;;;;;;;;-2.20;99.90;;;;;;4956841;28;20310;-70
2022/12/16 02:58:29;;;;;;;;;;;-2.10;99.90;;;;;;4937142;28;19997;-70
2022/12/16 03:01:30;;;;;;;;;;;-2.10;99.90;;;;;;4961256;28;20324;-70
2022/12/16 03:04:06;;;;;;;;;;;-2.10;99.90;;;;;;4882127;29;19931;-70
2022/12/16 03:06:32;;;;;;;;;;;-2.20;99.90;;;;;;4948747;28;20170;-70
2022/12/16 03:08:59;;;;;;;;;;;-2.30;99.90;;;;;;4959787;28;20013;-70
2022/12/16 03:11:26;;;;;;;;;;;-2.30;99.90;;;;;;4972044;28;19922;-70
2022/12/16 03:13:53;;;;;;;;;;;-2.40;99.90;;;;;;4955510;28;19973;-70
2022/12/16 03:16:20;;;;;;;;;;;-2.40;99.90;;;;;;4952536;28;19922;-70
2022/12/16 03:18:49;;;;;;;;;;;-2.40;99.90;;;;;;4955841;28;20020;-70
2022/12/16 03:21:15;;;;;;;;;;;-2.40;99.90;;;;;;4960948;28;20319;-70
2022/12/16 03:23:53;;;;;;;;;;;-2.50;99.90;;;;;;4971742;28;20030;-70
2022/12/16 03:26:25;;;;;;;;;;;-2.50;99.90;;;;;;4950212;28;19933;-70
2022/12/16 03:28:55;;;;;;;;;;;-2.50;99.90;;;;;;4961488;28;19949;-70
2022/12/16 03:31:34;;;;;;;;;;;-2.50;99.90;;;;;;4959234;28;19922;-69
2022/12/16 03:34:11;;;;;;;;;;;-2.50;99.90;;;;;;4937225;28;19922;-69
2022/12/16 03:36:38;;;;;;;;;;;-2.50;99.90;;;;;;4938834;28;19930;-69
2022/12/16 03:39:05;;;;;;;;;;;-2.40;99.90;;;;;;4957389;28;20543;-69
2022/12/16 03:41:31;;;;;;;;;;;-2.40;99.90;;;;;;4938069;28;19923;-69
2022/12/16 03:43:57;;;;;;;;;;;-2.30;99.90;;;;;;4959709;28;19923;-69
2022/12/16 03:46:22;;;;;;;;;;;-2.30;99.90;;;;;;4954819;28;19926;-69
2022/12/16 03:48:49;;;;;;;;;;;-2.40;99.90;;;;;;4939507;28;20032;-69
2022/12/16 03:51:14;;;;;;;;;;;-2.40;99.90;;;;;;4938547;28;20000;-69
2022/12/16 03:53:40;;;;;;;;;;;-2.40;99.90;;;;;;4953394;28;20001;-69
2022/12/16 03:56:06;;;;;;;;;;;-2.40;99.90;;;;;;4937498;28;20005;-69
2022/12/16 03:58:34;;;;;;;;;;;-2.40;99.90;;;;;;4956936;28;20309;-69
2022/12/16 04:00:59;;;;;;;;;;;-2.40;99.90;;;;;;4969840;28;20364;-69
2022/12/16 04:03:25;;;;;;;;;;;-2.40;99.90;;;;;;4954662;28;19926;-69
2022/12/16 04:05:51;;;;;;;;;;;-2.40;99.90;;;;;;4953075;28;19930;-69
2022/12/16 04:08:16;;;;;;;;;;;-2.40;99.90;;;;;;4955518;28;19922;-69
2022/12/16 04:24:29;;;;;;;;;;;-2.10;99.90;;;;;;4959043;28;20098;-70
2022/12/16 04:30:17;;;;;;;;;;;-2.10;99.90;;;;;;4959502;28;20397;-70
2022/12/16 04:32:24;;;;;;;;;;;-2.10;99.90;;;;;;4962454;28;19980;-70
2022/12/16 04:34:51;;;;;;;;;;;-2.10;99.90;;;;;;4965312;28;20407;-70
